Portada
METAR-TAF:

METAR-TAF

Aeropuertos :

Aeropuerto Internacional de Macao

Macao, China

latitud: 22-10N, longitud: 113-34E, altitud: 114 m

Observación

El informe se hizo hace 11 minutos, a las 01:00 UTC
Viento 13 kt del norte
Temperatura 16°C
Humedad 68%
Presión 1021 hPa
Visibilidad 10 km o más
Escasas nubes a una altura de 2200 ft

METAR: VMMC 180100Z 36013KT 9999 FEW022 16/10 Q1021 NOSIG

Hora: 09:11 (01:11 UTC)

Pronóstico

El informe se hizo hace 2 horas y 11 minutos, a las 23:00 UTC
Pronóstico válido del 18 a las 00 UTC al 19 a las 06 UTC
Viento 12 kt del norte-noreste
Visibilidad 10 km o más
Escasas nubes a una altura de 3000 ft
Nubes dispersas a una altura de 4500 ft
Evolucionando progresivamente
del 18 a las 06 UTC al 18 a las 09 UTC
Viento 10 kt del este
Temporalmente
del 18 a las 20 UTC al 19 a las 06 UTC
Viento 10 kt del norte-noreste

TAF: VMMC 172300Z 1800/1906 02012KT 9999 FEW030 SCT045 BECMG 1806/1809 09010KT TEMPO 1820/1906 03010KT

Observaciones y pronósticos meteorológicos de más de 4000 aeropuertos (mensajes METAR y TAF).

Los puntos amarillos y rojos representan las estaciones disponibles.

Ponga el ratón en el punto deseado para ver el nombre de la estación.

Haga clic para ver las observaciones y los pronósticos meteorológicos.

Para cambiar el mapa : haga clic en los botones verdes con una cruz de color negro para hacer un zoom, en el botón verde con un guión para alejar o en las flechas verdes para mapas adyacentes.


METAR-TAF: